sensor_id;sensor_type;location;lat;lon;timestamp;P1;durP1;ratioP1;P2;durP2;ratioP2
46084;SDS011;31823;47.032;8.310;2023-02-28T00:00:19;18.25;;;11.52;;
46084;SDS011;31823;47.032;8.310;2023-02-28T00:02:45;15.15;;;11.43;;
46084;SDS011;31823;47.032;8.310;2023-02-28T00:05:12;15.65;;;11.05;;
46084;SDS011;31823;47.032;8.310;2023-02-28T00:07:39;19.15;;;11.57;;
46084;SDS011;31823;47.032;8.310;2023-02-28T00:10:06;16.08;;;11.50;;
46084;SDS011;31823;47.032;8.310;2023-02-28T00:12:33;15.20;;;11.38;;
46084;SDS011;31823;47.032;8.310;2023-02-28T00:14:59;14.45;;;11.45;;
46084;SDS011;31823;47.032;8.310;2023-02-28T00:17:25;18.30;;;11.35;;
46084;SDS011;31823;47.032;8.310;2023-02-28T00:19:50;16.73;;;11.65;;
46084;SDS011;31823;47.032;8.310;2023-02-28T00:22:17;13.73;;;11.55;;
46084;SDS011;31823;47.032;8.310;2023-02-28T00:24:44;17.30;;;12.30;;
46084;SDS011;31823;47.032;8.310;2023-02-28T00:27:10;18.67;;;11.88;;
46084;SDS011;31823;47.032;8.310;2023-02-28T00:29:36;13.93;;;10.70;;
46084;SDS011;31823;47.032;8.310;2023-02-28T00:32:02;17.60;;;11.57;;
46084;SDS011;31823;47.032;8.310;2023-02-28T00:34:29;16.75;;;11.95;;
46084;SDS011;31823;47.032;8.310;2023-02-28T00:36:55;18.45;;;12.25;;
46084;SDS011;31823;47.032;8.310;2023-02-28T00:39:20;20.42;;;12.43;;
46084;SDS011;31823;47.032;8.310;2023-02-28T00:41:46;16.20;;;11.38;;
46084;SDS011;31823;47.032;8.310;2023-02-28T00:44:12;16.20;;;11.52;;
46084;SDS011;31823;47.032;8.310;2023-02-28T00:46:37;16.23;;;11.77;;
46084;SDS011;31823;47.032;8.310;2023-02-28T00:49:03;16.95;;;11.77;;
46084;SDS011;31823;47.032;8.310;2023-02-28T00:51:29;17.83;;;11.98;;
46084;SDS011;31823;47.032;8.310;2023-02-28T00:53:54;15.88;;;12.15;;
46084;SDS011;31823;47.032;8.310;2023-02-28T00:56:20;13.57;;;11.52;;
46084;SDS011;31823;47.032;8.310;2023-02-28T00:58:46;15.38;;;11.13;;
46084;SDS011;31823;47.032;8.310;2023-02-28T01:01:11;15.15;;;12.13;;
46084;SDS011;31823;47.032;8.310;2023-02-28T01:03:37;21.95;;;12.57;;
46084;SDS011;31823;47.032;8.310;2023-02-28T01:06:03;21.95;;;12.23;;
46084;SDS011;31823;47.032;8.310;2023-02-28T01:08:29;16.80;;;12.25;;
46084;SDS011;31823;47.032;8.310;2023-02-28T01:10:55;16.73;;;12.20;;
46084;SDS011;31823;47.032;8.310;2023-02-28T01:13:21;15.15;;;11.73;;
46084;SDS011;31823;47.032;8.310;2023-02-28T01:15:51;15.02;;;10.90;;
46084;SDS011;31823;47.032;8.310;2023-02-28T01:18:19;19.13;;;10.90;;
46084;SDS011;31823;47.032;8.310;2023-02-28T01:20:45;16.60;;;12.32;;
46084;SDS011;31823;47.032;8.310;2023-02-28T01:23:11;14.40;;;11.20;;
46084;SDS011;31823;47.032;8.310;2023-02-28T01:25:37;15.75;;;12.13;;
46084;SDS011;31823;47.032;8.310;2023-02-28T01:28:02;17.15;;;11.95;;
46084;SDS011;31823;47.032;8.310;2023-02-28T01:30:28;15.95;;;11.35;;
46084;SDS011;31823;47.032;8.310;2023-02-28T01:32:54;16.17;;;10.98;;
46084;SDS011;31823;47.032;8.310;2023-02-28T01:35:19;17.85;;;11.95;;
46084;SDS011;31823;47.032;8.310;2023-02-28T01:37:45;17.65;;;11.60;;
46084;SDS011;31823;47.032;8.310;2023-02-28T01:40:11;16.02;;;11.80;;
46084;SDS011;31823;47.032;8.310;2023-02-28T01:42:37;19.13;;;11.27;;
46084;SDS011;31823;47.032;8.310;2023-02-28T01:45:06;16.33;;;11.88;;
46084;SDS011;31823;47.032;8.310;2023-02-28T01:47:50;17.77;;;12.18;;
46084;SDS011;31823;47.032;8.310;2023-02-28T01:50:21;17.83;;;12.40;;
46084;SDS011;31823;47.032;8.310;2023-02-28T01:52:49;17.70;;;12.23;;
46084;SDS011;31823;47.032;8.310;2023-02-28T01:55:17;16.38;;;12.13;;
46084;SDS011;31823;47.032;8.310;2023-02-28T01:57:52;17.45;;;11.93;;
46084;SDS011;31823;47.032;8.310;2023-02-28T02:00:20;19.15;;;12.68;;
46084;SDS011;31823;47.032;8.310;2023-02-28T02:02:50;14.23;;;10.60;;
46084;SDS011;31823;47.032;8.310;2023-02-28T02:05:19;17.25;;;12.13;;
46084;SDS011;31823;47.032;8.310;2023-02-28T02:07:47;16.55;;;12.55;;
46084;SDS011;31823;47.032;8.310;2023-02-28T02:10:18;17.02;;;12.18;;
46084;SDS011;31823;47.032;8.310;2023-02-28T02:12:56;18.08;;;12.40;;
46084;SDS011;31823;47.032;8.310;2023-02-28T02:16:22;18.25;;;12.88;;
46084;SDS011;31823;47.032;8.310;2023-02-28T02:24:10;20.23;;;13.73;;
46084;SDS011;31823;47.032;8.310;2023-02-28T02:39:56;17.27;;;12.65;;
46084;SDS011;31823;47.032;8.310;2023-02-28T02:47:47;19.25;;;12.95;;
46084;SDS011;31823;47.032;8.310;2023-02-28T02:50:17;21.77;;;13.50;;
46084;SDS011;31823;47.032;8.310;2023-02-28T02:52:50;15.82;;;12.35;;
46084;SDS011;31823;47.032;8.310;2023-02-28T02:55:19;17.50;;;12.63;;
46084;SDS011;31823;47.032;8.310;2023-02-28T02:57:48;17.55;;;12.60;;
46084;SDS011;31823;47.032;8.310;2023-02-28T03:00:28;16.27;;;12.07;;
46084;SDS011;31823;47.032;8.310;2023-02-28T03:03:14;16.38;;;12.43;;
46084;SDS011;31823;47.032;8.310;2023-02-28T03:05:46;19.02;;;13.10;;
46084;SDS011;31823;47.032;8.310;2023-02-28T03:08:13;19.98;;;13.32;;
46084;SDS011;31823;47.032;8.310;2023-02-28T03:10:49;17.20;;;12.52;;
46084;SDS011;31823;47.032;8.310;2023-02-28T03:24:51;19.40;;;13.27;;
46084;SDS011;31823;47.032;8.310;2023-02-28T03:29:56;22.15;;;14.07;;
46084;SDS011;31823;47.032;8.310;2023-02-28T03:32:35;18.98;;;13.82;;
46084;SDS011;31823;47.032;8.310;2023-02-28T03:35:12;19.98;;;13.07;;
46084;SDS011;31823;47.032;8.310;2023-02-28T03:37:46;20.67;;;13.73;;
46084;SDS011;31823;47.032;8.310;2023-02-28T03:40:30;20.80;;;13.63;;
46084;SDS011;31823;47.032;8.310;2023-02-28T03:43:02;20.95;;;14.27;;
46084;SDS011;31823;47.032;8.310;2023-02-28T03:45:33;18.90;;;13.50;;
46084;SDS011;31823;47.032;8.310;2023-02-28T03:48:05;21.20;;;14.30;;
46084;SDS011;31823;47.032;8.310;2023-02-28T03:50:57;19.02;;;14.07;;
46084;SDS011;31823;47.032;8.310;2023-02-28T03:53:28;21.67;;;14.15;;
46084;SDS011;31823;47.032;8.310;2023-02-28T03:55:56;20.67;;;14.27;;
46084;SDS011;31823;47.032;8.310;2023-02-28T03:58:31;18.83;;;13.35;;
46084;SDS011;31823;47.032;8.310;2023-02-28T04:01:13;19.88;;;13.82;;
46084;SDS011;31823;47.032;8.310;2023-02-28T04:03:44;20.35;;;14.07;;
46084;SDS011;31823;47.032;8.310;2023-02-28T04:06:13;19.70;;;13.80;;
46084;SDS011;31823;47.032;8.310;2023-02-28T04:08:42;20.65;;;14.40;;
46084;SDS011;31823;47.032;8.310;2023-02-28T04:11:12;20.30;;;14.38;;
46084;SDS011;31823;47.032;8.310;2023-02-28T04:13:47;20.13;;;14.13;;
46084;SDS011;31823;47.032;8.310;2023-02-28T04:16:13;22.92;;;15.05;;
46084;SDS011;31823;47.032;8.310;2023-02-28T04:18:39;21.02;;;14.68;;
46084;SDS011;31823;47.032;8.310;2023-02-28T04:21:05;19.65;;;14.27;;
46084;SDS011;31823;47.032;8.310;2023-02-28T04:23:31;23.13;;;15.00;;
46084;SDS011;31823;47.032;8.310;2023-02-28T04:25:57;20.80;;;14.77;;
46084;SDS011;31823;47.032;8.310;2023-02-28T04:28:23;21.58;;;14.85;;
46084;SDS011;31823;47.032;8.310;2023-02-28T04:30:54;19.42;;;13.70;;
46084;SDS011;31823;47.032;8.310;2023-02-28T04:33:23;20.17;;;14.73;;
46084;SDS011;31823;47.032;8.310;2023-02-28T04:35:57;21.33;;;15.40;;
46084;SDS011;31823;47.032;8.310;2023-02-28T04:38:24;23.67;;;14.40;;
46084;SDS011;31823;47.032;8.310;2023-02-28T04:40:49;23.10;;;14.43;;
46084;SDS011;31823;47.032;8.310;2023-02-28T04:43:15;22.45;;;14.80;;
46084;SDS011;31823;47.032;8.310;2023-02-28T04:45:40;22.67;;;15.35;;
46084;SDS011;31823;47.032;8.310;2023-02-28T04:48:06;20.67;;;14.40;;
46084;SDS011;31823;47.032;8.310;2023-02-28T04:50:31;21.58;;;13.60;;
46084;SDS011;31823;47.032;8.310;2023-02-28T04:52:57;20.80;;;14.32;;
46084;SDS011;31823;47.032;8.310;2023-02-28T04:55:22;21.23;;;14.63;;
46084;SDS011;31823;47.032;8.310;2023-02-28T04:57:48;23.20;;;16.02;;
46084;SDS011;31823;47.032;8.310;2023-02-28T05:00:13;24.65;;;15.52;;
46084;SDS011;31823;47.032;8.310;2023-02-28T05:02:41;21.02;;;15.85;;
46084;SDS011;31823;47.032;8.310;2023-02-28T05:05:07;23.10;;;15.70;;
46084;SDS011;31823;47.032;8.310;2023-02-28T05:07:33;21.05;;;14.88;;
46084;SDS011;31823;47.032;8.310;2023-02-28T05:09:58;17.95;;;13.40;;
46084;SDS011;31823;47.032;8.310;2023-02-28T05:12:24;21.27;;;14.40;;
46084;SDS011;31823;47.032;8.310;2023-02-28T05:14:49;17.88;;;14.43;;
46084;SDS011;31823;47.032;8.310;2023-02-28T05:17:15;24.63;;;15.43;;
46084;SDS011;31823;47.032;8.310;2023-02-28T05:19:41;26.00;;;14.60;;
46084;SDS011;31823;47.032;8.310;2023-02-28T05:22:09;22.88;;;14.82;;
46084;SDS011;31823;47.032;8.310;2023-02-28T05:24:38;20.73;;;14.80;;
46084;SDS011;31823;47.032;8.310;2023-02-28T05:27:04;21.30;;;15.20;;
46084;SDS011;31823;47.032;8.310;2023-02-28T05:29:29;24.00;;;15.18;;
46084;SDS011;31823;47.032;8.310;2023-02-28T05:31:55;21.42;;;14.20;;
46084;SDS011;31823;47.032;8.310;2023-02-28T05:34:20;24.65;;;16.50;;
46084;SDS011;31823;47.032;8.310;2023-02-28T05:36:46;21.17;;;14.95;;
46084;SDS011;31823;47.032;8.310;2023-02-28T05:39:11;23.88;;;15.25;;
46084;SDS011;31823;47.032;8.310;2023-02-28T05:41:38;18.02;;;13.70;;
46084;SDS011;31823;47.032;8.310;2023-02-28T05:44:07;20.50;;;14.05;;
46084;SDS011;31823;47.032;8.310;2023-02-28T05:46:32;20.85;;;14.15;;
46084;SDS011;31823;47.032;8.310;2023-02-28T05:48:58;24.02;;;14.95;;
46084;SDS011;31823;47.032;8.310;2023-02-28T05:51:25;22.15;;;14.35;;
46084;SDS011;31823;47.032;8.310;2023-02-28T05:53:50;22.02;;;14.30;;
46084;SDS011;31823;47.032;8.310;2023-02-28T05:56:16;19.55;;;14.90;;
46084;SDS011;31823;47.032;8.310;2023-02-28T05:58:41;20.55;;;15.18;;
46084;SDS011;31823;47.032;8.310;2023-02-28T06:01:21;21.50;;;15.48;;
46084;SDS011;31823;47.032;8.310;2023-02-28T06:03:49;21.60;;;14.65;;
46084;SDS011;31823;47.032;8.310;2023-02-28T06:06:15;19.65;;;14.88;;
46084;SDS011;31823;47.032;8.310;2023-02-28T06:08:41;21.30;;;14.88;;
46084;SDS011;31823;47.032;8.310;2023-02-28T06:11:08;22.20;;;14.20;;
46084;SDS011;31823;47.032;8.310;2023-02-28T06:13:33;19.65;;;14.27;;
46084;SDS011;31823;47.032;8.310;2023-02-28T06:16:02;22.50;;;16.08;;
46084;SDS011;31823;47.032;8.310;2023-02-28T06:18:28;22.35;;;14.82;;
46084;SDS011;31823;47.032;8.310;2023-02-28T06:20:54;24.20;;;15.02;;
46084;SDS011;31823;47.032;8.310;2023-02-28T06:23:20;22.48;;;16.00;;
46084;SDS011;31823;47.032;8.310;2023-02-28T06:25:46;20.25;;;15.02;;
46084;SDS011;31823;47.032;8.310;2023-02-28T06:28:12;21.45;;;14.75;;
46084;SDS011;31823;47.032;8.310;2023-02-28T06:30:38;20.50;;;14.73;;
46084;SDS011;31823;47.032;8.310;2023-02-28T06:33:04;23.45;;;16.33;;
46084;SDS011;31823;47.032;8.310;2023-02-28T06:35:30;20.80;;;14.73;;
46084;SDS011;31823;47.032;8.310;2023-02-28T06:37:56;19.85;;;14.32;;
46084;SDS011;31823;47.032;8.310;2023-02-28T06:40:21;21.33;;;15.02;;
46084;SDS011;31823;47.032;8.310;2023-02-28T06:42:47;22.27;;;15.77;;
46084;SDS011;31823;47.032;8.310;2023-02-28T06:45:13;22.05;;;15.70;;
46084;SDS011;31823;47.032;8.310;2023-02-28T06:47:40;20.27;;;15.07;;
46084;SDS011;31823;47.032;8.310;2023-02-28T06:50:07;22.65;;;15.35;;
46084;SDS011;31823;47.032;8.310;2023-02-28T06:52:37;21.27;;;15.32;;
46084;SDS011;31823;47.032;8.310;2023-02-28T06:55:04;24.98;;;15.98;;
46084;SDS011;31823;47.032;8.310;2023-02-28T06:57:31;20.52;;;15.23;;
46084;SDS011;31823;47.032;8.310;2023-02-28T06:59:58;23.75;;;16.42;;
46084;SDS011;31823;47.032;8.310;2023-02-28T07:02:24;21.70;;;15.20;;
46084;SDS011;31823;47.032;8.310;2023-02-28T07:04:50;22.33;;;14.98;;
46084;SDS011;31823;47.032;8.310;2023-02-28T07:07:15;21.30;;;15.50;;
46084;SDS011;31823;47.032;8.310;2023-02-28T07:09:41;20.88;;;14.98;;
46084;SDS011;31823;47.032;8.310;2023-02-28T07:12:06;20.55;;;14.77;;
46084;SDS011;31823;47.032;8.310;2023-02-28T07:14:32;22.17;;;15.18;;
46084;SDS011;31823;47.032;8.310;2023-02-28T07:16:57;21.80;;;15.57;;
46084;SDS011;31823;47.032;8.310;2023-02-28T07:19:24;24.90;;;16.23;;
46084;SDS011;31823;47.032;8.310;2023-02-28T07:21:50;23.17;;;14.98;;
46084;SDS011;31823;47.032;8.310;2023-02-28T07:24:15;22.23;;;15.10;;
46084;SDS011;31823;47.032;8.310;2023-02-28T07:26:42;23.88;;;15.25;;
46084;SDS011;31823;47.032;8.310;2023-02-28T07:29:08;21.63;;;15.98;;
46084;SDS011;31823;47.032;8.310;2023-02-28T07:31:34;23.73;;;16.13;;
46084;SDS011;31823;47.032;8.310;2023-02-28T07:33:59;24.77;;;15.57;;
46084;SDS011;31823;47.032;8.310;2023-02-28T07:36:25;25.67;;;15.48;;
46084;SDS011;31823;47.032;8.310;2023-02-28T07:38:50;28.30;;;16.13;;
46084;SDS011;31823;47.032;8.310;2023-02-28T07:41:16;22.50;;;15.60;;
46084;SDS011;31823;47.032;8.310;2023-02-28T07:43:43;22.17;;;14.77;;
46084;SDS011;31823;47.032;8.310;2023-02-28T07:46:10;29.75;;;16.55;;
46084;SDS011;31823;47.032;8.310;2023-02-28T07:48:39;23.40;;;16.23;;
46084;SDS011;31823;47.032;8.310;2023-02-28T07:51:05;21.77;;;14.57;;
46084;SDS011;31823;47.032;8.310;2023-02-28T07:53:31;18.70;;;13.77;;
46084;SDS011;31823;47.032;8.310;2023-02-28T07:55:57;20.80;;;14.70;;
46084;SDS011;31823;47.032;8.310;2023-02-28T07:58:25;26.70;;;16.13;;
46084;SDS011;31823;47.032;8.310;2023-02-28T08:00:51;24.50;;;16.55;;
46084;SDS011;31823;47.032;8.310;2023-02-28T08:03:17;20.40;;;14.18;;
46084;SDS011;31823;47.032;8.310;2023-02-28T08:05:45;19.77;;;14.48;;
46084;SDS011;31823;47.032;8.310;2023-02-28T08:08:10;21.63;;;14.75;;
46084;SDS011;31823;47.032;8.310;2023-02-28T08:10:36;19.95;;;13.70;;
46084;SDS011;31823;47.032;8.310;2023-02-28T08:13:02;24.55;;;14.68;;
46084;SDS011;31823;47.032;8.310;2023-02-28T08:15:28;22.65;;;14.63;;
46084;SDS011;31823;47.032;8.310;2023-02-28T08:17:53;19.60;;;15.10;;
46084;SDS011;31823;47.032;8.310;2023-02-28T08:20:21;22.10;;;15.13;;
46084;SDS011;31823;47.032;8.310;2023-02-28T08:22:47;25.70;;;15.10;;
46084;SDS011;31823;47.032;8.310;2023-02-28T08:25:13;23.17;;;15.00;;
46084;SDS011;31823;47.032;8.310;2023-02-28T08:27:38;26.08;;;15.15;;
46084;SDS011;31823;47.032;8.310;2023-02-28T08:30:04;22.17;;;15.35;;
46084;SDS011;31823;47.032;8.310;2023-02-28T08:32:31;20.02;;;14.25;;
46084;SDS011;31823;47.032;8.310;2023-02-28T08:34:57;25.30;;;16.10;;
46084;SDS011;31823;47.032;8.310;2023-02-28T08:37:23;20.52;;;14.32;;
46084;SDS011;31823;47.032;8.310;2023-02-28T08:39:48;26.17;;;16.17;;
46084;SDS011;31823;47.032;8.310;2023-02-28T08:42:14;20.55;;;14.68;;
46084;SDS011;31823;47.032;8.310;2023-02-28T08:44:40;23.85;;;14.68;;
46084;SDS011;31823;47.032;8.310;2023-02-28T08:47:05;24.25;;;15.13;;
46084;SDS011;31823;47.032;8.310;2023-02-28T08:49:31;21.15;;;14.88;;
46084;SDS011;31823;47.032;8.310;2023-02-28T08:51:57;23.75;;;14.82;;
46084;SDS011;31823;47.032;8.310;2023-02-28T08:54:23;22.02;;;14.85;;
46084;SDS011;31823;47.032;8.310;2023-02-28T08:56:48;24.73;;;16.05;;
46084;SDS011;31823;47.032;8.310;2023-02-28T08:59:14;23.85;;;15.45;;
46084;SDS011;31823;47.032;8.310;2023-02-28T09:01:40;23.55;;;16.13;;
46084;SDS011;31823;47.032;8.310;2023-02-28T09:04:06;22.50;;;15.82;;
46084;SDS011;31823;47.032;8.310;2023-02-28T09:06:34;25.73;;;15.43;;
46084;SDS011;31823;47.032;8.310;2023-02-28T09:09:00;23.70;;;15.75;;
46084;SDS011;31823;47.032;8.310;2023-02-28T09:11:26;22.88;;;15.50;;
46084;SDS011;31823;47.032;8.310;2023-02-28T09:13:52;21.48;;;14.98;;
46084;SDS011;31823;47.032;8.310;2023-02-28T09:16:20;23.63;;;15.00;;
46084;SDS011;31823;47.032;8.310;2023-02-28T09:18:46;21.75;;;14.82;;
46084;SDS011;31823;47.032;8.310;2023-02-28T09:21:13;22.65;;;15.95;;
46084;SDS011;31823;47.032;8.310;2023-02-28T09:23:41;22.35;;;14.70;;
46084;SDS011;31823;47.032;8.310;2023-02-28T09:26:11;24.17;;;16.42;;
46084;SDS011;31823;47.032;8.310;2023-02-28T09:28:42;25.88;;;15.15;;
46084;SDS011;31823;47.032;8.310;2023-02-28T09:31:11;22.85;;;15.68;;
46084;SDS011;31823;47.032;8.310;2023-02-28T09:33:41;23.05;;;15.65;;
46084;SDS011;31823;47.032;8.310;2023-02-28T09:36:07;22.83;;;14.57;;
46084;SDS011;31823;47.032;8.310;2023-02-28T09:38:33;22.92;;;15.98;;
46084;SDS011;31823;47.032;8.310;2023-02-28T09:41:03;24.10;;;15.38;;
46084;SDS011;31823;47.032;8.310;2023-02-28T09:43:38;23.17;;;14.98;;
46084;SDS011;31823;47.032;8.310;2023-02-28T09:46:10;23.50;;;15.70;;
46084;SDS011;31823;47.032;8.310;2023-02-28T09:48:39;25.95;;;15.63;;
46084;SDS011;31823;47.032;8.310;2023-02-28T09:51:15;22.63;;;15.00;;
46084;SDS011;31823;47.032;8.310;2023-02-28T09:53:47;22.80;;;16.13;;
46084;SDS011;31823;47.032;8.310;2023-02-28T09:56:24;23.90;;;16.52;;
46084;SDS011;31823;47.032;8.310;2023-02-28T09:59:01;25.48;;;15.55;;
46084;SDS011;31823;47.032;8.310;2023-02-28T10:04:34;23.70;;;15.25;;
46084;SDS011;31823;47.032;8.310;2023-02-28T10:07:11;28.15;;;16.35;;
46084;SDS011;31823;47.032;8.310;2023-02-28T10:09:46;24.95;;;15.60;;
46084;SDS011;31823;47.032;8.310;2023-02-28T10:12:17;25.23;;;14.65;;
46084;SDS011;31823;47.032;8.310;2023-02-28T10:14:45;25.60;;;15.65;;
46084;SDS011;31823;47.032;8.310;2023-02-28T10:17:15;25.50;;;15.60;;
46084;SDS011;31823;47.032;8.310;2023-02-28T10:20:01;24.15;;;15.27;;
46084;SDS011;31823;47.032;8.310;2023-02-28T10:25:26;26.63;;;16.30;;
46084;SDS011;31823;47.032;8.310;2023-02-28T10:27:53;23.17;;;15.15;;
46084;SDS011;31823;47.032;8.310;2023-02-28T10:30:23;25.10;;;16.65;;
46084;SDS011;31823;47.032;8.310;2023-02-28T10:32:51;24.90;;;15.05;;
46084;SDS011;31823;47.032;8.310;2023-02-28T10:35:22;25.80;;;15.30;;
46084;SDS011;31823;47.032;8.310;2023-02-28T10:37:50;25.67;;;15.25;;
46084;SDS011;31823;47.032;8.310;2023-02-28T10:42:58;22.30;;;15.23;;
46084;SDS011;31823;47.032;8.310;2023-02-28T10:45:24;23.95;;;15.63;;
46084;SDS011;31823;47.032;8.310;2023-02-28T10:50:26;25.35;;;15.02;;
46084;SDS011;31823;47.032;8.310;2023-02-28T11:01:19;22.25;;;14.75;;
46084;SDS011;31823;47.032;8.310;2023-02-28T11:04:17;23.40;;;15.77;;
46084;SDS011;31823;47.032;8.310;2023-02-28T11:06:57;21.42;;;15.63;;
46084;SDS011;31823;47.032;8.310;2023-02-28T11:09:29;24.23;;;15.93;;
46084;SDS011;31823;47.032;8.310;2023-02-28T11:11:59;23.92;;;15.73;;
46084;SDS011;31823;47.032;8.310;2023-02-28T11:14:27;21.08;;;14.85;;
46084;SDS011;31823;47.032;8.310;2023-02-28T11:16:55;24.92;;;15.52;;
46084;SDS011;31823;47.032;8.310;2023-02-28T11:19:38;19.77;;;13.65;;
46084;SDS011;31823;47.032;8.310;2023-02-28T11:22:09;22.73;;;15.35;;
46084;SDS011;31823;47.032;8.310;2023-02-28T11:27:01;24.00;;;15.35;;
46084;SDS011;31823;47.032;8.310;2023-02-28T11:29:31;21.27;;;14.70;;
46084;SDS011;31823;47.032;8.310;2023-02-28T11:34:43;25.20;;;15.48;;
46084;SDS011;31823;47.032;8.310;2023-02-28T11:37:15;22.55;;;15.57;;
46084;SDS011;31823;47.032;8.310;2023-02-28T11:39:43;22.92;;;14.90;;
46084;SDS011;31823;47.032;8.310;2023-02-28T11:48:04;22.92;;;14.02;;
46084;SDS011;31823;47.032;8.310;2023-02-28T11:50:48;21.10;;;15.05;;
46084;SDS011;31823;47.032;8.310;2023-02-28T11:53:50;25.90;;;15.48;;
46084;SDS011;31823;47.032;8.310;2023-02-28T11:56:41;25.63;;;14.25;;
46084;SDS011;31823;47.032;8.310;2023-02-28T12:10:26;24.40;;;15.73;;
46084;SDS011;31823;47.032;8.310;2023-02-28T12:15:45;24.08;;;14.90;;
46084;SDS011;31823;47.032;8.310;2023-02-28T12:26:42;23.70;;;15.35;;
46084;SDS011;31823;47.032;8.310;2023-02-28T12:29:14;22.88;;;15.10;;
46084;SDS011;31823;47.032;8.310;2023-02-28T12:31:53;27.17;;;15.35;;
46084;SDS011;31823;47.032;8.310;2023-02-28T12:34:57;27.77;;;15.65;;
46084;SDS011;31823;47.032;8.310;2023-02-28T12:37:36;24.92;;;15.43;;
46084;SDS011;31823;47.032;8.310;2023-02-28T12:40:19;24.60;;;15.75;;
46084;SDS011;31823;47.032;8.310;2023-02-28T12:42:48;24.95;;;15.23;;
46084;SDS011;31823;47.032;8.310;2023-02-28T12:47:52;25.50;;;15.57;;
46084;SDS011;31823;47.032;8.310;2023-02-28T12:50:25;22.92;;;14.80;;
46084;SDS011;31823;47.032;8.310;2023-02-28T12:58:15;27.27;;;16.05;;
46084;SDS011;31823;47.032;8.310;2023-02-28T13:03:30;24.63;;;15.63;;
46084;SDS011;31823;47.032;8.310;2023-02-28T13:06:13;25.02;;;16.38;;
46084;SDS011;31823;47.032;8.310;2023-02-28T13:09:11;21.55;;;15.57;;
46084;SDS011;31823;47.032;8.310;2023-02-28T13:11:40;21.98;;;15.73;;
46084;SDS011;31823;47.032;8.310;2023-02-28T13:19:34;23.83;;;15.25;;
46084;SDS011;31823;47.032;8.310;2023-02-28T13:22:03;22.52;;;15.13;;
46084;SDS011;31823;47.032;8.310;2023-02-28T13:27:39;22.13;;;15.80;;
46084;SDS011;31823;47.032;8.310;2023-02-28T13:38:42;24.63;;;16.35;;
46084;SDS011;31823;47.032;8.310;2023-02-28T13:44:01;23.52;;;15.57;;
46084;SDS011;31823;47.032;8.310;2023-02-28T13:49:31;22.02;;;15.10;;
46084;SDS011;31823;47.032;8.310;2023-02-28T14:00:39;25.48;;;15.52;;
46084;SDS011;31823;47.032;8.310;2023-02-28T14:08:35;25.80;;;15.52;;
46084;SDS011;31823;47.032;8.310;2023-02-28T14:11:08;25.73;;;16.15;;
46084;SDS011;31823;47.032;8.310;2023-02-28T14:13:59;26.30;;;16.67;;
46084;SDS011;31823;47.032;8.310;2023-02-28T14:16:35;25.55;;;15.20;;
46084;SDS011;31823;47.032;8.310;2023-02-28T14:19:12;28.20;;;15.88;;
46084;SDS011;31823;47.032;8.310;2023-02-28T14:21:59;24.02;;;15.38;;
46084;SDS011;31823;47.032;8.310;2023-02-28T14:24:59;30.23;;;16.90;;
46084;SDS011;31823;47.032;8.310;2023-02-28T14:33:25;24.75;;;15.85;;
46084;SDS011;31823;47.032;8.310;2023-02-28T14:36:27;28.40;;;15.55;;
46084;SDS011;31823;47.032;8.310;2023-02-28T14:39:03;26.73;;;14.63;;
46084;SDS011;31823;47.032;8.310;2023-02-28T14:47:01;24.27;;;15.13;;
46084;SDS011;31823;47.032;8.310;2023-02-28T14:49:37;20.98;;;14.93;;
46084;SDS011;31823;47.032;8.310;2023-02-28T14:54:45;28.73;;;16.63;;
46084;SDS011;31823;47.032;8.310;2023-02-28T14:57:20;22.92;;;14.35;;
46084;SDS011;31823;47.032;8.310;2023-02-28T15:02:45;29.23;;;16.85;;
46084;SDS011;31823;47.032;8.310;2023-02-28T15:07:42;29.63;;;17.02;;
46084;SDS011;31823;47.032;8.310;2023-02-28T15:12:36;23.52;;;15.82;;
46084;SDS011;31823;47.032;8.310;2023-02-28T15:15:04;25.92;;;16.23;;
46084;SDS011;31823;47.032;8.310;2023-02-28T15:17:32;22.92;;;15.38;;
46084;SDS011;31823;47.032;8.310;2023-02-28T15:19:58;23.45;;;16.05;;
46084;SDS011;31823;47.032;8.310;2023-02-28T15:22:28;37.30;;;16.75;;
46084;SDS011;31823;47.032;8.310;2023-02-28T15:24:59;23.23;;;15.00;;
46084;SDS011;31823;47.032;8.310;2023-02-28T15:27:26;23.90;;;16.02;;
46084;SDS011;31823;47.032;8.310;2023-02-28T15:29:55;25.40;;;16.00;;
46084;SDS011;31823;47.032;8.310;2023-02-28T15:32:24;24.85;;;16.17;;
46084;SDS011;31823;47.032;8.310;2023-02-28T15:34:59;24.88;;;15.57;;
46084;SDS011;31823;47.032;8.310;2023-02-28T15:37:53;25.90;;;15.98;;
46084;SDS011;31823;47.032;8.310;2023-02-28T15:46:03;26.42;;;16.48;;
46084;SDS011;31823;47.032;8.310;2023-02-28T15:48:33;24.20;;;15.95;;
46084;SDS011;31823;47.032;8.310;2023-02-28T15:53:37;26.08;;;17.23;;
46084;SDS011;31823;47.032;8.310;2023-02-28T15:56:25;23.50;;;15.88;;
46084;SDS011;31823;47.032;8.310;2023-02-28T15:58:53;25.27;;;15.93;;
46084;SDS011;31823;47.032;8.310;2023-02-28T16:01:28;23.73;;;15.25;;
46084;SDS011;31823;47.032;8.310;2023-02-28T16:04:03;26.45;;;16.52;;
46084;SDS011;31823;47.032;8.310;2023-02-28T16:09:00;27.75;;;16.77;;
46084;SDS011;31823;47.032;8.310;2023-02-28T16:11:27;25.73;;;16.92;;
46084;SDS011;31823;47.032;8.310;2023-02-28T16:13:53;28.85;;;18.10;;
46084;SDS011;31823;47.032;8.310;2023-02-28T16:16:20;28.30;;;16.63;;
46084;SDS011;31823;47.032;8.310;2023-02-28T16:18:48;27.17;;;16.98;;
46084;SDS011;31823;47.032;8.310;2023-02-28T16:21:13;27.40;;;16.92;;
46084;SDS011;31823;47.032;8.310;2023-02-28T16:23:39;24.88;;;16.75;;
46084;SDS011;31823;47.032;8.310;2023-02-28T16:26:04;23.67;;;16.27;;
46084;SDS011;31823;47.032;8.310;2023-02-28T16:28:32;28.02;;;16.80;;
46084;SDS011;31823;47.032;8.310;2023-02-28T16:31:00;25.25;;;16.85;;
46084;SDS011;31823;47.032;8.310;2023-02-28T16:33:30;28.77;;;18.02;;
46084;SDS011;31823;47.032;8.310;2023-02-28T16:35:56;26.42;;;17.50;;
46084;SDS011;31823;47.032;8.310;2023-02-28T16:38:22;26.48;;;16.35;;
46084;SDS011;31823;47.032;8.310;2023-02-28T16:40:50;26.85;;;16.77;;
46084;SDS011;31823;47.032;8.310;2023-02-28T16:43:17;31.27;;;17.85;;
46084;SDS011;31823;47.032;8.310;2023-02-28T16:45:48;28.27;;;16.98;;
46084;SDS011;31823;47.032;8.310;2023-02-28T16:48:18;24.70;;;17.15;;
46084;SDS011;31823;47.032;8.310;2023-02-28T16:50:44;25.45;;;16.77;;
46084;SDS011;31823;47.032;8.310;2023-02-28T16:53:10;29.58;;;18.30;;
46084;SDS011;31823;47.032;8.310;2023-02-28T16:55:35;28.27;;;18.25;;
46084;SDS011;31823;47.032;8.310;2023-02-28T16:58:02;29.45;;;17.65;;
46084;SDS011;31823;47.032;8.310;2023-02-28T17:00:29;31.50;;;18.13;;
46084;SDS011;31823;47.032;8.310;2023-02-28T17:02:56;24.60;;;16.42;;
46084;SDS011;31823;47.032;8.310;2023-02-28T17:05:24;27.60;;;17.48;;
46084;SDS011;31823;47.032;8.310;2023-02-28T17:07:50;28.48;;;17.75;;
46084;SDS011;31823;47.032;8.310;2023-02-28T17:10:17;29.27;;;18.33;;
46084;SDS011;31823;47.032;8.310;2023-02-28T17:12:45;26.50;;;17.23;;
46084;SDS011;31823;47.032;8.310;2023-02-28T17:15:12;30.30;;;19.40;;
46084;SDS011;31823;47.032;8.310;2023-02-28T17:17:38;26.52;;;17.20;;
46084;SDS011;31823;47.032;8.310;2023-02-28T17:20:05;27.83;;;17.42;;
46084;SDS011;31823;47.032;8.310;2023-02-28T17:22:32;25.70;;;17.80;;
46084;SDS011;31823;47.032;8.310;2023-02-28T17:24:57;27.27;;;18.40;;